ENSE

Snorre A Oilp

Snorre A Oilp, Norway
METAR ENSE 191950Z AUTO 26035KT 9999NDV FEW029/// SCT040/// 11/05 Q1007 W///S6
Observed Flight Rules
Jun-19 @ 19:50 UTC (29 minutes ago)
Wind Clouds
260° at 35 knots
  • Few at 2,900' AGL
  • Scattered at 4,000' AGL
Temperatures Readings
Current 11°C / 52°F
Dewpoint 5°C / 41°F
Humidity 67%
Altimeter 29.73" Hg
Pressure 1007 hPa
Elevation 10
METAR ENSE 191950Z AUTO 26035KT 9999NDV FEW029/// SCT040/// 11/05 Q1007 W///S6
Observed Flight Rules
Jun-19 @ 19:50 UTC
(29 minutes ago)
Wind
260° at 35 knots
Clouds
  • Few at 2,900' AGL
  • Scattered at 4,000' AGL
Temperature Dewpoint
11°C / 52°F 5°C / 41°F
Humidity Altimeter Pressure
67% 29.73" Hg 1007 hPa